Dzhezkazgan, Zhezkazgan Airport (UAKD)

NameZhezkazgan Airport
CityDzhezkazgan
CountryKazakhstan
ICAOUAKD
IATADZN
Altitude116 m
CoordinatesGoogle Map
Live Air TrafficLiveATC.net
METARUAKD 101300Z 30002MPS 0300 R22/0900 FZFG SCT003 M07/M07 Q1021 R22/850160 NOSIG RMK QBB100 QFE733/0977
2018-12-10 13:00:00 Wind: West-Northwest (300°) 2 m/s - Visibility: 300 m - Weather: Freezing Fog - Temperature: -7 °C - Dew point: -7 °C - Humidity: 100% - Pressure: 1021 hPa

Sorry, no flights used the airport in this database.